Dana Trader — 5VCX8 — position and weather

sailwx.info

Track history (hours):
 
Tides and Currents Weather Stations Pressure Air Temp Water Temp Dewpoint Dewpoint Depression Visibility Wind Speed Wind Dir Waves Ship Positions

Dana Trader

Last reported at 2018-May-25 22:06 UTC. Time now 2018-Jun-22 05:46 UTC.
Position N 33°55' E 035°07'.
Warning: this ship's position is 27 days out of date.

; draft 5.8 m.

MMSI: 671515000.

Date/timePositionNaut miles runAvg speedWind from/ knotsBaromVisibWave heightAir tempDewpointWater temp
2018-May-25 22:06N 33°55' E 035°07'1 8.3
2018-May-25 22:00N 33°55' E 035°06'21 8.1
2018-May-25 19:27N 33°59' E 034°41'3 7.7
2018-May-25 19:00N 33°59' E 034°37'4 7.8
2018-May-25 18:30N 33°60' E 034°33'  
2018-May-20 06:08N 37°13' E 025°50'1 9.8
2018-May-20 06:00N 37°14' E 025°49'5 9.8
2018-May-20 05:30N 37°18' E 025°46'6 9.6
2018-May-20 04:55N 37°22' E 025°41'410.0
2018-May-20 04:30N 37°25' E 025°38'510.3
2018-May-20 04:00N 37°29' E 025°34'510.7
2018-May-20 03:30N 37°33' E 025°29'510.5
2018-May-20 03:00N 37°37' E 025°24'610.3
2018-May-20 02:28N 37°41' E 025°20'510.3
2018-May-20 02:00N 37°44' E 025°15'510.3
2018-May-20 01:30N 37°48' E 025°11'610.1
2018-May-20 00:53N 37°53' E 025°06'  
2018-May-16 22:23N 37°50' E 025°12'3 8.4
2018-May-16 22:00N 37°48' E 025°14'4 7.9
2018-May-16 21:30N 37°45' E 025°18'4 8.0
2018-May-16 21:00N 37°42' E 025°21'4 8.1
2018-May-16 20:29N 37°39' E 025°25'5 8.2
2018-May-16 19:55N 37°36' E 025°29'3 8.1
2018-May-16 19:30N 37°33' E 025°32'15 8.4
2018-May-16 17:44N 37°22' E 025°44'2 8.3
2018-May-16 17:30N 37°21' E 025°46'4 8.6
2018-May-16 17:00N 37°17' E 025°50'  
Track history (hours):
 
Tides and Currents Weather Stations Pressure Air Temp Water Temp Dewpoint Dewpoint Depression Visibility Wind Speed Wind Dir Waves Ship Positions

Dana Trader

Last reported at 2018-May-25 22:06 UTC. Time now 2018-Jun-22 05:46 UTC.
Position N 33°55' E 035°07'.
Warning: this ship's position is 27 days out of date.

; draft 5.8 m.

MMSI: 671515000.

Date/timePositionNaut miles runAvg speedWind from/ knotsBaromVisibWave heightAir tempDewpointWater temp
2018-May-25 22:06N 33°55' E 035°07'1 8.3
2018-May-25 22:00N 33°55' E 035°06'21 8.1
2018-May-25 19:27N 33°59' E 034°41'3 7.7
2018-May-25 19:00N 33°59' E 034°37'4 7.8
2018-May-25 18:30N 33°60' E 034°33'  
2018-May-20 06:08N 37°13' E 025°50'1 9.8
2018-May-20 06:00N 37°14' E 025°49'5 9.8
2018-May-20 05:30N 37°18' E 025°46'6 9.6
2018-May-20 04:55N 37°22' E 025°41'410.0
2018-May-20 04:30N 37°25' E 025°38'510.3
2018-May-20 04:00N 37°29' E 025°34'510.7
2018-May-20 03:30N 37°33' E 025°29'510.5
2018-May-20 03:00N 37°37' E 025°24'610.3
2018-May-20 02:28N 37°41' E 025°20'510.3
2018-May-20 02:00N 37°44' E 025°15'510.3
2018-May-20 01:30N 37°48' E 025°11'610.1
2018-May-20 00:53N 37°53' E 025°06'  
2018-May-16 22:23N 37°50' E 025°12'3 8.4
2018-May-16 22:00N 37°48' E 025°14'4 7.9
2018-May-16 21:30N 37°45' E 025°18'4 8.0
2018-May-16 21:00N 37°42' E 025°21'4 8.1
2018-May-16 20:29N 37°39' E 025°25'5 8.2
2018-May-16 19:55N 37°36' E 025°29'3 8.1
2018-May-16 19:30N 37°33' E 025°32'15 8.4
2018-May-16 17:44N 37°22' E 025°44'2 8.3
2018-May-16 17:30N 37°21' E 025°46'4 8.6
2018-May-16 17:00N 37°17' E 025°50'  

Dump ship's entire track history